createdAt,value
2022-10-05T00:02:24.462Z,97157.31
2022-10-05T00:04:57.427Z,97162.19
2022-10-05T00:07:25.194Z,97168.44
2022-10-05T00:09:59.603Z,97167.84
2022-10-05T00:12:30.162Z,97162.84
2022-10-05T00:15:00.725Z,97160.78
2022-10-05T00:17:30.725Z,97162.47
2022-10-05T00:19:57.742Z,97167.09
2022-10-05T00:22:30.402Z,97166.72
2022-10-05T00:25:01.145Z,97165.53
2022-10-05T00:27:37.707Z,97161.09
2022-10-05T00:30:16.130Z,97166.72
2022-10-05T00:32:44.153Z,97163.47
2022-10-05T00:35:12.778Z,97166.13
2022-10-05T00:37:40.211Z,97176.34
2022-10-05T00:40:16.371Z,97166.88
2022-10-05T00:43:09.603Z,97166.78
2022-10-05T00:45:44.070Z,97165.53
2022-10-05T00:48:55.684Z,97170.19
2022-10-05T00:51:36.083Z,97162.16
2022-10-05T00:54:21.522Z,97173.22
2022-10-05T00:57:00.743Z,97158.13
2022-10-05T00:59:58.302Z,97150.88
2022-10-05T01:02:46.822Z,97150.63
2022-10-05T01:05:35.344Z,97158.50
2022-10-05T01:08:34.346Z,97151.06
2022-10-05T01:11:10.186Z,97155.75
2022-10-05T01:13:46.262Z,97160.59
2022-10-05T01:16:59.143Z,97158.00
2022-10-05T01:19:40.363Z,97145.94
2022-10-05T01:22:39.722Z,97142.34
2022-10-05T01:25:13.002Z,97139.09
2022-10-05T01:27:53.667Z,97133.22
2022-10-05T01:30:22.302Z,97137.66
2022-10-05T01:33:18.362Z,97136.44
2022-10-05T01:35:57.472Z,97140.25
2022-10-05T01:38:27.582Z,97139.06
2022-10-05T01:41:09.702Z,97139.47
2022-10-05T01:43:46.209Z,97135.25
2022-10-05T01:46:36.182Z,97143.53
2022-10-05T01:49:24.882Z,97140.09
2022-10-05T01:52:00.902Z,97132.47
2022-10-05T01:54:52.362Z,97132.88
2022-10-05T01:57:31.792Z,97126.63
2022-10-05T02:00:10.902Z,97129.25
2022-10-05T02:02:45.123Z,97124.47
2022-10-05T02:05:35.462Z,97133.69
2022-10-05T02:08:19.062Z,97136.09
2022-10-05T02:10:59.931Z,97139.50
2022-10-05T02:13:38.643Z,97132.88
2022-10-05T02:16:14.681Z,97129.69
2022-10-05T02:18:54.369Z,97132.31
2022-10-05T02:21:22.242Z,97124.06
2022-10-05T02:23:54.647Z,97112.38
2022-10-05T02:26:22.762Z,97114.19
2022-10-05T02:28:58.283Z,97114.59
2022-10-05T02:32:00.748Z,97125.56
2022-10-05T02:34:38.222Z,97114.84
2022-10-05T02:37:34.644Z,97117.47
2022-10-05T02:40:39.741Z,97103.81
2022-10-05T02:43:12.808Z,97102.06
2022-10-05T02:46:19.582Z,97102.06
2022-10-05T02:48:57.783Z,97096.03
2022-10-05T02:51:34.081Z,97099.84
2022-10-05T02:54:22.021Z,97109.91
2022-10-05T02:57:01.484Z,97110.41
2022-10-05T02:59:31.462Z,97102.97
2022-10-05T03:02:16.854Z,97094.31
2022-10-05T03:05:09.190Z,97087.50
2022-10-05T03:07:56.774Z,97094.16
2022-10-05T03:10:29.470Z,97090.94
2022-10-05T03:13:18.210Z,97094.34
2022-10-05T03:16:11.616Z,97086.34
2022-10-05T03:18:53.623Z,97089.16
2022-10-05T03:21:33.783Z,97085.94
2022-10-05T03:24:20.143Z,97080.16
2022-10-05T03:27:01.947Z,97084.81
2022-10-05T03:29:58.063Z,97083.81
2022-10-05T03:32:42.563Z,97079.59
2022-10-05T03:35:23.211Z,97074.75
2022-10-05T03:38:09.332Z,97080.63
2022-10-05T03:40:51.123Z,97075.00
2022-10-05T03:43:34.622Z,97077.41
2022-10-05T03:46:13.640Z,97079.66
2022-10-05T03:48:48.384Z,97086.88
2022-10-05T03:51:31.544Z,97081.06
2022-10-05T03:54:27.382Z,97079.44
2022-10-05T03:57:00.931Z,97083.66
2022-10-05T03:59:40.602Z,97085.06
2022-10-05T04:02:20.215Z,97075.63
2022-10-05T04:05:09.862Z,97082.25
2022-10-05T04:07:55.062Z,97081.22
2022-10-05T04:10:28.042Z,97080.22
2022-10-05T04:13:31.563Z,97082.84
2022-10-05T04:16:28.425Z,97078.66
2022-10-05T04:19:19.462Z,97073.03
2022-10-05T04:22:13.075Z,97069.47
2022-10-05T04:24:44.856Z,97073.88
2022-10-05T04:27:18.162Z,97074.66
2022-10-05T04:30:00.687Z,97079.50
2022-10-05T04:32:36.577Z,97079.31
2022-10-05T04:35:15.856Z,97068.88
2022-10-05T04:38:17.911Z,97076.09
2022-10-05T04:41:27.729Z,97075.72
2022-10-05T04:44:01.321Z,97067.28
2022-10-05T04:46:49.057Z,97067.88
2022-10-05T04:49:38.669Z,97073.69
2022-10-05T04:52:23.612Z,97069.88
2022-10-05T04:55:13.678Z,97075.28
2022-10-05T04:57:46.730Z,97076.09
2022-10-05T05:00:32.367Z,97074.88
2022-10-05T05:03:34.915Z,97081.31
2022-10-05T05:06:30.578Z,97082.13
2022-10-05T05:09:18.528Z,97089.16
2022-10-05T05:12:04.239Z,97099.78
2022-10-05T05:15:22.870Z,97101.22
2022-10-05T05:18:06.870Z,97099.59
2022-10-05T05:20:48.750Z,97095.38
2022-10-05T05:23:36.030Z,97096.59
2022-10-05T05:26:09.654Z,97098.59
2022-10-05T05:28:50.369Z,97101.63
2022-10-05T05:31:48.455Z,97106.59
2022-10-05T05:34:27.908Z,97099.38
2022-10-05T05:37:08.569Z,97103.41
2022-10-05T05:39:49.390Z,97102.59
2022-10-05T05:42:17.909Z,97101.75
2022-10-05T05:44:52.680Z,97103.97
2022-10-05T05:47:25.420Z,97104.50
2022-10-05T05:50:07.298Z,97106.25
2022-10-05T05:52:47.328Z,97109.50
2022-10-05T05:55:30.538Z,97108.50
2022-10-05T05:58:49.308Z,97102.34
2022-10-05T06:01:47.892Z,97104.25
2022-10-05T06:04:19.890Z,97108.44
2022-10-05T06:06:51.508Z,97112.03
2022-10-05T06:09:21.492Z,97113.34
2022-10-05T06:12:09.569Z,97108.88
2022-10-05T06:14:56.728Z,97114.03
2022-10-05T06:17:42.669Z,97122.00
2022-10-05T06:20:22.379Z,97110.22
2022-10-05T06:22:51.628Z,97120.63
2022-10-05T06:25:31.690Z,97120.09
2022-10-05T06:28:11.296Z,97116.56
2022-10-05T06:31:07.123Z,97119.91
2022-10-05T06:33:59.896Z,97114.56
2022-10-05T06:36:53.051Z,97119.28
2022-10-05T06:39:35.719Z,97116.13
2022-10-05T06:42:23.516Z,97119.56
2022-10-05T06:45:41.882Z,97127.41
2022-10-05T06:48:45.760Z,97122.41
2022-10-05T06:51:47.630Z,97129.16
2022-10-05T06:54:36.598Z,97131.47
2022-10-05T06:57:03.808Z,97134.41
2022-10-05T06:59:42.789Z,97127.56
2022-10-05T07:02:47.459Z,97131.69
2022-10-05T07:05:52.609Z,97131.47
2022-10-05T07:08:26.765Z,97143.63
2022-10-05T07:11:18.989Z,97149.31
2022-10-05T07:14:03.252Z,97147.38
2022-10-05T07:16:52.339Z,97149.22
2022-10-05T07:19:19.350Z,97144.66
2022-10-05T07:22:15.377Z,97148.06
2022-10-05T07:25:03.629Z,97137.91
2022-10-05T07:27:40.936Z,97144.16
2022-10-05T07:30:14.448Z,97142.91
2022-10-05T07:33:05.490Z,97147.13
2022-10-05T07:36:01.510Z,97149.75
2022-10-05T07:38:39.128Z,97147.53
2022-10-05T07:41:08.417Z,97150.28
2022-10-05T07:44:03.328Z,97144.09
2022-10-05T07:46:59.408Z,97140.94
2022-10-05T07:49:52.427Z,97141.53
2022-10-05T07:52:38.251Z,97131.72
2022-10-05T07:55:23.498Z,97134.81
2022-10-05T07:58:09.679Z,97132.16
2022-10-05T08:01:00.011Z,97132.47
2022-10-05T08:03:56.640Z,97133.53
2022-10-05T08:06:49.709Z,97137.53
2022-10-05T08:09:23.379Z,97134.81
2022-10-05T08:11:55.869Z,97136.03
2022-10-05T08:14:22.798Z,97134.94
2022-10-05T08:16:55.679Z,97134.75
2022-10-05T08:19:26.079Z,97135.22
2022-10-05T08:22:00.650Z,97137.63
2022-10-05T08:25:01.428Z,97141.69
2022-10-05T08:27:47.111Z,97139.53
2022-10-05T08:30:16.777Z,97145.19
2022-10-05T08:33:12.189Z,97147.75
2022-10-05T08:35:44.060Z,97144.91
2022-10-05T08:38:17.428Z,97148.25
2022-10-05T08:40:47.230Z,97146.53
2022-10-05T08:43:16.716Z,97151.13
2022-10-05T08:46:32.608Z,97140.91
2022-10-05T08:49:35.353Z,97134.22
2022-10-05T08:52:21.148Z,97135.97
2022-10-05T08:55:22.676Z,97148.75
2022-10-05T08:58:04.458Z,97155.50
2022-10-05T09:00:53.372Z,97138.19
2022-10-05T09:03:41.548Z,97151.56
2022-10-05T09:06:33.759Z,97149.50
2022-10-05T09:09:09.888Z,97144.59
2022-10-05T09:11:39.189Z,97142.03
2022-10-05T09:14:29.553Z,97142.63
2022-10-05T09:17:10.718Z,97136.31
2022-10-05T09:20:11.242Z,97138.28
2022-10-05T09:23:04.956Z,97137.28
2022-10-05T09:25:57.449Z,97139.94
2022-10-05T09:28:45.992Z,97137.03
2022-10-05T09:31:49.156Z,97143.19
2022-10-05T09:34:28.288Z,97129.88
2022-10-05T09:37:07.690Z,97132.00
2022-10-05T09:39:34.617Z,97131.97
2022-10-05T09:42:07.535Z,97129.28
2022-10-05T09:44:52.809Z,97126.91
2022-10-05T09:48:01.137Z,97138.03
2022-10-05T09:50:53.119Z,97132.34
2022-10-05T09:54:10.897Z,97141.06
2022-10-05T09:57:04.388Z,97142.84
2022-10-05T09:59:49.709Z,97144.34
2022-10-05T10:03:08.452Z,97146.38
2022-10-05T10:06:03.506Z,97136.19
2022-10-05T10:08:49.237Z,97126.56
2022-10-05T10:11:31.332Z,97131.56
2022-10-05T10:14:17.630Z,97129.06
2022-10-05T10:17:26.900Z,97121.41
2022-10-05T10:20:00.048Z,97121.53
2022-10-05T10:22:39.598Z,97118.38
2022-10-05T10:25:47.039Z,97116.28
2022-10-05T10:28:14.035Z,97120.97
2022-10-05T10:30:47.132Z,97121.88
2022-10-05T10:33:28.890Z,97123.06
2022-10-05T10:36:13.349Z,97113.84
2022-10-05T10:38:53.434Z,97115.50
2022-10-05T10:41:34.273Z,97115.56
2022-10-05T10:44:29.949Z,97119.88
2022-10-05T10:47:39.668Z,97110.72
2022-10-05T10:50:28.506Z,97116.72
2022-10-05T10:53:22.950Z,97115.19
2022-10-05T10:56:00.688Z,97113.91
2022-10-05T10:59:01.940Z,97118.69
2022-10-05T11:13:43.051Z,97110.88
2022-10-05T11:16:15.875Z,97109.09
2022-10-05T11:19:20.613Z,97106.47
2022-10-05T11:22:02.750Z,97101.00
2022-10-05T11:24:34.919Z,97099.84
2022-10-05T11:27:08.501Z,97102.78
2022-10-05T11:29:41.608Z,97107.34
2022-10-05T11:32:27.999Z,97100.97
2022-10-05T11:35:00.829Z,97095.63
2022-10-05T11:38:19.609Z,97100.03
2022-10-05T11:41:19.089Z,97089.13
2022-10-05T11:44:19.929Z,97097.84
2022-10-05T11:46:49.886Z,97087.38
2022-10-05T11:49:48.810Z,97086.38
2022-10-05T11:52:34.690Z,97085.78
2022-10-05T11:55:24.789Z,97087.13
2022-10-05T11:57:58.713Z,97082.09
2022-10-05T12:00:32.687Z,97079.72
2022-10-05T12:03:24.978Z,97070.31
2022-10-05T12:06:07.168Z,97074.47
2022-10-05T12:08:39.870Z,97074.66
2022-10-05T12:11:27.777Z,97079.69
2022-10-05T12:14:01.488Z,97081.97
2022-10-05T12:16:28.459Z,97082.69
2022-10-05T12:19:16.670Z,97083.38
2022-10-05T12:22:00.199Z,97077.44
2022-10-05T12:24:29.821Z,97083.84
2022-10-05T12:27:07.711Z,97080.09
2022-10-05T12:29:34.543Z,97067.53
2022-10-05T12:32:07.935Z,97070.91
2022-10-05T12:35:13.487Z,97066.56
2022-10-05T12:38:10.459Z,97070.63
2022-10-05T12:40:51.849Z,97077.44
2022-10-05T12:43:41.848Z,97071.69
2022-10-05T12:46:43.299Z,97071.53
2022-10-05T12:49:34.979Z,97070.47
2022-10-05T12:52:06.117Z,97071.41
2022-10-05T12:54:49.661Z,97064.91
2022-10-05T12:57:32.190Z,97067.56
2022-10-05T13:00:22.733Z,97067.34
2022-10-05T13:02:58.001Z,97070.44
2022-10-05T13:05:30.650Z,97073.69
2022-10-05T13:08:18.171Z,97070.31
2022-10-05T13:10:45.131Z,97066.03
2022-10-05T13:13:26.369Z,97065.63
2022-10-05T13:16:00.849Z,97072.06
2022-10-05T13:18:27.809Z,97070.28
2022-10-05T13:21:07.088Z,97066.91
2022-10-05T13:23:39.968Z,97062.63
2022-10-05T13:26:25.091Z,97066.88
2022-10-05T13:29:18.308Z,97069.16
2022-10-05T13:31:51.186Z,97067.81
2022-10-05T13:34:46.903Z,97069.50
2022-10-05T13:37:35.671Z,97065.38
2022-10-05T13:40:24.330Z,97067.09
2022-10-05T13:43:04.249Z,97069.16
2022-10-05T13:45:51.244Z,97068.19
2022-10-05T13:49:15.599Z,97070.03
2022-10-05T13:52:23.689Z,97065.66
2022-10-05T13:55:00.071Z,97064.81
2022-10-05T13:57:36.369Z,97062.44
2022-10-05T14:00:14.712Z,97060.19
2022-10-05T14:02:45.119Z,97067.44
2022-10-05T14:05:22.157Z,97065.97
2022-10-05T14:07:56.848Z,97066.69
2022-10-05T14:10:47.890Z,97067.47
2022-10-05T14:13:20.768Z,97056.31
2022-10-05T14:16:04.886Z,97059.03
2022-10-05T14:18:36.443Z,97054.75
2022-10-05T14:21:19.258Z,97051.47
2022-10-05T14:23:46.289Z,97052.09
2022-10-05T14:26:23.540Z,97045.47
2022-10-05T14:29:00.836Z,97052.53
2022-10-05T14:31:35.748Z,97043.66
2022-10-05T14:34:29.231Z,97053.72
2022-10-05T14:37:21.039Z,97049.47
2022-10-05T14:39:50.616Z,97056.09
2022-10-05T14:42:21.329Z,97044.09
2022-10-05T14:45:13.530Z,97045.16
2022-10-05T14:48:06.310Z,97042.03
2022-10-05T14:50:33.488Z,97046.69
2022-10-05T14:53:03.208Z,97041.50
2022-10-05T14:55:40.229Z,97041.03
2022-10-05T14:58:26.030Z,97033.84
2022-10-05T15:01:11.395Z,97032.59
2022-10-05T15:03:58.809Z,97036.19
2022-10-05T15:06:33.329Z,97038.53
2022-10-05T15:09:17.303Z,97039.91
2022-10-05T15:11:55.229Z,97034.06
2022-10-05T15:14:34.231Z,97037.41
2022-10-05T15:17:31.229Z,97039.91
2022-10-05T15:20:24.682Z,97041.34
2022-10-05T15:23:23.957Z,97039.94
2022-10-05T15:26:10.829Z,97028.03
2022-10-05T15:28:56.748Z,97029.94
2022-10-05T15:31:42.468Z,97029.06
2022-10-05T15:34:41.988Z,97024.88
2022-10-05T15:37:24.590Z,97026.47
2022-10-05T15:40:05.178Z,97021.97
2022-10-05T15:42:38.466Z,97028.06
2022-10-05T15:45:19.778Z,97028.63
2022-10-05T15:47:53.077Z,97029.44
2022-10-05T15:50:26.552Z,97021.47
2022-10-05T15:53:23.328Z,97019.34
2022-10-05T15:56:03.670Z,97028.13
2022-10-05T15:58:52.790Z,97025.00
2022-10-05T16:01:29.544Z,97029.78
2022-10-05T16:04:17.729Z,97025.56
2022-10-05T16:07:17.309Z,97023.22
2022-10-05T16:09:56.946Z,97020.59
2022-10-05T16:12:35.259Z,97023.00
2022-10-05T16:15:26.780Z,97025.63
2022-10-05T16:18:09.448Z,97024.09
2022-10-05T16:21:00.151Z,97021.44
2022-10-05T16:24:06.470Z,97026.78
2022-10-05T16:26:50.289Z,97026.75
2022-10-05T16:29:54.369Z,97026.22
2022-10-05T16:32:31.189Z,97028.88
2022-10-05T16:35:21.090Z,97026.75
2022-10-05T16:38:06.348Z,97026.50
2022-10-05T16:41:12.926Z,97029.13
2022-10-05T16:43:40.131Z,97033.91
2022-10-05T16:46:41.325Z,97032.81
2022-10-05T16:49:31.761Z,97030.69
2022-10-05T16:52:06.811Z,97035.69
2022-10-05T16:54:49.148Z,97038.09
2022-10-05T16:57:28.209Z,97031.72
2022-10-05T17:00:28.811Z,97034.56
2022-10-05T17:03:21.818Z,97040.13
2022-10-05T17:06:19.390Z,97044.84
2022-10-05T17:09:08.009Z,97046.94
2022-10-05T17:11:43.989Z,97049.03
2022-10-05T17:14:31.038Z,97044.78
2022-10-05T17:17:17.429Z,97040.78
2022-10-05T17:20:07.237Z,97041.31
2022-10-05T17:22:46.712Z,97043.66
2022-10-05T17:25:37.376Z,97040.72
2022-10-05T17:28:24.667Z,97042.31
2022-10-05T17:31:21.885Z,97042.81
2022-10-05T17:34:07.231Z,97040.44
2022-10-05T17:36:54.389Z,97036.19
2022-10-05T17:39:51.690Z,97041.16
2022-10-05T17:42:29.219Z,97035.59
2022-10-05T17:45:14.090Z,97037.94
2022-10-05T17:48:06.427Z,97043.97
2022-10-05T17:51:05.458Z,97042.63
2022-10-05T17:54:03.325Z,97045.50
2022-10-05T17:56:31.756Z,97039.13
2022-10-05T17:58:59.880Z,97034.38
2022-10-05T18:01:30.830Z,97042.00
2022-10-05T18:04:35.236Z,97038.28
2022-10-05T18:07:24.111Z,97033.22
2022-10-05T18:09:57.831Z,97034.25
2022-10-05T18:12:37.889Z,97034.22
2022-10-05T18:15:07.886Z,97034.72
2022-10-05T18:17:37.159Z,97033.09
2022-10-05T18:20:32.314Z,97033.06
2022-10-05T18:23:09.869Z,97034.34
2022-10-05T18:26:02.470Z,97030.09
2022-10-05T18:29:14.230Z,97034.81
2022-10-05T18:32:01.789Z,97029.19
2022-10-05T18:34:39.888Z,97034.47
2022-10-05T18:37:14.938Z,97046.53
2022-10-05T18:40:18.988Z,97033.03
2022-10-05T18:43:00.529Z,97039.09
2022-10-05T18:45:56.548Z,97040.66
2022-10-05T18:48:54.366Z,97040.41
2022-10-05T18:51:39.968Z,97045.34
2022-10-05T18:54:13.888Z,97047.56
2022-10-05T18:56:49.368Z,97053.66
2022-10-05T18:59:29.569Z,97051.50
2022-10-05T19:02:11.197Z,97054.38
2022-10-05T19:04:56.931Z,97052.38
2022-10-05T19:07:40.920Z,97049.78
2022-10-05T19:10:19.729Z,97042.09
2022-10-05T19:13:05.258Z,97045.31
2022-10-05T19:15:47.751Z,97046.91
2022-10-05T19:18:38.908Z,97045.63
2022-10-05T19:21:33.279Z,97050.09
2022-10-05T19:24:31.453Z,97050.34
2022-10-05T19:27:01.189Z,97051.66
2022-10-05T19:29:34.530Z,97048.50
2022-10-05T19:32:33.948Z,97050.09
2022-10-05T19:35:13.438Z,97053.53
2022-10-05T19:37:49.450Z,97057.47
2022-10-05T19:40:38.868Z,97056.41
2022-10-05T19:43:37.252Z,97058.25
2022-10-05T19:46:31.945Z,97060.66
2022-10-05T19:49:00.459Z,97060.66
2022-10-05T19:51:31.224Z,97063.53
2022-10-05T19:54:02.393Z,97069.84
2022-10-05T19:56:33.730Z,97062.94
2022-10-05T19:59:13.520Z,97068.94
2022-10-05T20:01:48.028Z,97072.31
2022-10-05T20:04:33.279Z,97074.34
2022-10-05T20:07:02.529Z,97073.72
2022-10-05T20:09:29.928Z,97074.75
2022-10-05T20:11:57.109Z,97078.69
2022-10-05T20:14:32.278Z,97073.09
2022-10-05T20:17:44.478Z,97072.72
2022-10-05T20:20:38.428Z,97078.97
2022-10-05T20:23:25.143Z,97081.56
2022-10-05T20:26:11.450Z,97082.78
2022-10-05T20:28:39.141Z,97086.13
2022-10-05T20:31:10.392Z,97082.16
2022-10-05T20:33:37.496Z,97092.13
2022-10-05T20:36:04.656Z,97089.97
2022-10-05T20:38:31.962Z,97087.81
2022-10-05T20:40:59.239Z,97088.63
2022-10-05T20:43:26.206Z,97089.41
2022-10-05T20:45:53.958Z,97092.47
2022-10-05T20:48:21.017Z,97088.78
2022-10-05T20:50:48.001Z,97087.44
2022-10-05T20:53:15.199Z,97091.31
2022-10-05T20:55:43.281Z,97093.97
2022-10-05T20:58:11.279Z,97090.00
2022-10-05T21:00:57.158Z,97087.34
2022-10-05T21:03:24.229Z,97098.13
2022-10-05T21:05:51.168Z,97093.66
2022-10-05T21:08:18.244Z,97097.53
2022-10-05T21:10:45.130Z,97098.03
2022-10-05T21:13:12.090Z,97098.81
2022-10-05T21:15:39.058Z,97102.72
2022-10-05T21:18:06.091Z,97097.13
2022-10-05T21:20:33.280Z,97098.91
2022-10-05T21:23:00.289Z,97097.28
2022-10-05T21:25:27.269Z,97103.75
2022-10-05T21:27:54.371Z,97100.81
2022-10-05T21:30:22.120Z,97097.75
2022-10-05T21:32:50.295Z,97105.31
2022-10-05T21:35:17.322Z,97103.97
2022-10-05T21:37:49.023Z,97104.94
2022-10-05T21:40:17.031Z,97099.34
2022-10-05T21:42:43.968Z,97102.69
2022-10-05T21:45:11.149Z,97102.25
2022-10-05T21:47:38.160Z,97101.91
2022-10-05T21:50:06.412Z,97098.97
2022-10-05T21:52:34.128Z,97105.19
2022-10-05T21:55:02.509Z,97098.78
2022-10-05T21:57:29.548Z,97097.88
2022-10-05T21:59:56.659Z,97100.75
2022-10-05T22:02:23.549Z,97098.34
2022-10-05T22:04:50.488Z,97094.47
2022-10-05T22:07:19.789Z,97102.59
2022-10-05T22:09:50.508Z,97106.00
2022-10-05T22:12:20.064Z,97098.59
2022-10-05T22:14:47.838Z,97093.78
2022-10-05T22:17:20.927Z,97089.34
2022-10-05T22:19:47.870Z,97099.06
2022-10-05T22:22:14.817Z,97091.16
2022-10-05T22:25:28.422Z,97097.47
2022-10-05T22:27:36.348Z,97095.84
2022-10-05T22:30:04.424Z,97092.69
2022-10-05T22:32:31.647Z,97091.06
2022-10-05T22:34:58.665Z,97094.75
2022-10-05T22:37:25.932Z,97088.44
2022-10-05T22:39:55.291Z,97087.41
2022-10-05T22:42:22.266Z,97084.22
2022-10-05T22:44:49.389Z,97093.47
2022-10-05T22:47:16.286Z,97084.91
2022-10-05T22:49:43.228Z,97086.19
2022-10-05T22:52:10.241Z,97098.19
2022-10-05T22:54:37.516Z,97094.19
2022-10-05T22:57:04.587Z,97089.75
2022-10-05T22:59:31.727Z,97095.13
2022-10-05T23:01:58.954Z,97095.56
2022-10-05T23:04:26.209Z,97100.25
2022-10-05T23:06:53.206Z,97095.69
2022-10-05T23:09:20.266Z,97102.22
2022-10-05T23:11:52.143Z,97101.41
2022-10-05T23:14:19.845Z,97098.69
2022-10-05T23:16:47.842Z,97106.91
2022-10-05T23:19:14.886Z,97102.47
2022-10-05T23:21:41.946Z,97103.97
2022-10-05T23:24:08.985Z,97109.53
2022-10-05T23:26:36.026Z,97107.63
2022-10-05T23:29:03.245Z,97107.16
2022-10-05T23:31:32.165Z,97100.28
2022-10-05T23:33:59.628Z,97108.53
2022-10-05T23:36:31.590Z,97107.72
2022-10-05T23:38:59.225Z,97111.38
2022-10-05T23:41:26.366Z,97101.66
2022-10-05T23:43:55.435Z,97110.13
2022-10-05T23:46:22.843Z,97115.59
2022-10-05T23:48:50.545Z,97118.47
2022-10-05T23:51:17.728Z,97113.91
2022-10-05T23:53:45.196Z,97118.34
2022-10-05T23:56:12.494Z,97126.69
2022-10-05T23:58:40.209Z,97119.84
